createdAt,value
2019-04-25T00:02:21.306Z,2.10
2019-04-25T00:04:51.537Z,1.90
2019-04-25T00:07:22.513Z,1.80
2019-04-25T00:09:55.924Z,1.90
2019-04-25T00:12:25.815Z,1.90
2019-04-25T00:14:55.106Z,1.70
2019-04-25T00:17:25.330Z,1.90
2019-04-25T00:19:54.621Z,2.00
2019-04-25T00:22:42.869Z,1.80
2019-04-25T00:25:32.354Z,1.80
2019-04-25T00:28:01.860Z,1.80
2019-04-25T00:30:32.893Z,2.30
2019-04-25T00:33:02.228Z,2.00
2019-04-25T00:35:31.617Z,2.67
2019-04-25T00:38:02.360Z,2.40
2019-04-25T00:40:31.980Z,2.27
2019-04-25T00:43:01.660Z,1.97
2019-04-25T00:45:31.687Z,2.10
2019-04-25T00:48:02.429Z,2.00
2019-04-25T00:50:32.575Z,2.30
2019-04-25T00:53:02.986Z,2.37
2019-04-25T00:55:32.350Z,2.87
2019-04-25T00:58:31.424Z,2.20
2019-04-25T01:01:28.524Z,3.13
2019-04-25T01:03:57.952Z,2.57
2019-04-25T01:06:27.243Z,3.13
2019-04-25T01:08:56.526Z,3.43
2019-04-25T01:11:26.260Z,3.53
2019-04-25T01:13:55.531Z,2.93
2019-04-25T01:16:24.882Z,2.67
2019-04-25T01:18:54.804Z,2.20
2019-04-25T01:21:25.326Z,1.97
2019-04-25T01:23:55.697Z,1.90
2019-04-25T01:26:25.328Z,1.97
2019-04-25T01:28:54.986Z,1.70
2019-04-25T01:31:26.140Z,2.37
2019-04-25T01:33:55.647Z,1.70
2019-04-25T01:36:50.703Z,2.80
2019-04-25T01:39:37.921Z,2.57
2019-04-25T01:42:24.971Z,2.57
2019-04-25T01:44:56.908Z,2.27
2019-04-25T01:47:27.083Z,2.40
2019-04-25T01:49:56.689Z,1.97
2019-04-25T01:52:26.415Z,1.90
2019-04-25T01:54:56.224Z,2.10
2019-04-25T01:57:26.713Z,1.90
2019-04-25T01:59:56.296Z,2.07
2019-04-25T02:02:27.427Z,1.77
2019-04-25T02:04:57.987Z,2.10
2019-04-25T02:07:27.787Z,1.47
2019-04-25T02:09:57.361Z,2.07
2019-04-25T02:12:38.345Z,1.83
2019-04-25T02:15:07.723Z,2.03
2019-04-25T02:17:37.093Z,1.77
2019-04-25T02:20:06.430Z,1.67
2019-04-25T02:22:35.801Z,1.70
2019-04-25T02:25:05.286Z,1.50
2019-04-25T02:27:34.605Z,1.80
2019-04-25T02:30:06.759Z,1.40
2019-04-25T02:32:37.216Z,1.53
2019-04-25T02:35:09.518Z,1.70
2019-04-25T02:37:37.367Z,1.60
2019-04-25T02:40:08.461Z,1.70
2019-04-25T02:42:38.317Z,1.83
2019-04-25T02:45:27.758Z,1.47
2019-04-25T02:48:27.994Z,1.60
2019-04-25T02:51:05.462Z,1.77
2019-04-25T02:53:38.924Z,2.03
2019-04-25T02:56:26.127Z,2.23
2019-04-25T02:58:39.366Z,2.07
2019-04-25T03:01:17.903Z,2.10
2019-04-25T03:03:41.809Z,2.37
2019-04-25T03:06:11.104Z,2.00
2019-04-25T03:08:40.640Z,2.10
2019-04-25T03:11:10.025Z,1.73
2019-04-25T03:13:39.542Z,1.70
2019-04-25T03:16:10.903Z,2.00
2019-04-25T03:19:10.913Z,1.70
2019-04-25T03:21:41.281Z,2.10
2019-04-25T03:24:15.932Z,2.10
2019-04-25T03:26:41.616Z,2.07
2019-04-25T03:29:10.942Z,2.10
2019-04-25T03:31:40.249Z,2.30
2019-04-25T03:34:14.038Z,2.27
2019-04-25T03:36:40.659Z,2.17
2019-04-25T03:39:09.962Z,2.30
2019-04-25T03:41:39.255Z,2.23
2019-04-25T03:44:08.614Z,1.97
2019-04-25T03:46:37.915Z,1.83
2019-04-25T03:49:07.643Z,2.00
2019-04-25T03:51:37.256Z,1.83
2019-04-25T03:54:07.523Z,2.10
2019-04-25T03:56:37.674Z,1.60
2019-04-25T03:59:07.226Z,2.17
2019-04-25T04:01:36.898Z,2.07
2019-04-25T04:04:07.075Z,2.40
2019-04-25T04:06:37.321Z,1.93
2019-04-25T04:09:07.972Z,1.70
2019-04-25T04:11:37.518Z,1.90
2019-04-25T04:14:07.081Z,2.30
2019-04-25T04:16:39.540Z,1.90
2019-04-25T04:19:08.911Z,2.90
2019-04-25T04:21:50.550Z,2.90
2019-04-25T04:24:25.793Z,3.20
2019-04-25T04:27:09.141Z,5.20
2019-04-25T04:29:39.491Z,4.47
2019-04-25T04:32:08.787Z,4.60
2019-04-25T04:34:38.180Z,4.70
2019-04-25T04:37:07.618Z,4.23
2019-04-25T04:39:37.246Z,3.80
2019-04-25T04:42:07.543Z,4.73
2019-04-25T04:44:37.700Z,4.33
2019-04-25T04:47:08.433Z,4.13
2019-04-25T04:49:38.238Z,3.60
2019-04-25T04:52:08.296Z,3.70
2019-04-25T04:54:38.598Z,3.80
2019-04-25T04:57:18.493Z,3.97
2019-04-25T04:59:39.393Z,4.27
2019-04-25T05:02:19.596Z,4.17
2019-04-25T05:05:17.182Z,4.00
2019-04-25T05:07:55.823Z,3.80
2019-04-25T05:10:25.193Z,5.90
2019-04-25T05:12:54.724Z,4.67
2019-04-25T05:15:24.743Z,3.80
2019-04-25T05:17:54.667Z,3.33
2019-04-25T05:20:24.310Z,3.20
2019-04-25T05:22:54.940Z,2.30
2019-04-25T05:25:24.932Z,2.47
2019-04-25T05:28:00.796Z,1.93
2019-04-25T05:30:33.567Z,1.90
2019-04-25T05:33:03.972Z,1.90
2019-04-25T05:35:33.407Z,1.73
2019-04-25T05:38:03.421Z,1.90
2019-04-25T05:40:34.452Z,2.20
2019-04-25T05:43:10.011Z,2.07
2019-04-25T05:45:39.282Z,1.93
2019-04-25T05:48:09.171Z,2.13
2019-04-25T05:50:38.522Z,1.80
2019-04-25T05:53:09.032Z,1.80
2019-04-25T05:55:38.336Z,1.90
2019-04-25T05:58:07.650Z,1.70
2019-04-25T06:00:36.958Z,2.20
2019-04-25T06:03:06.248Z,2.00
2019-04-25T06:05:35.609Z,2.37
2019-04-25T06:08:04.930Z,1.90
2019-04-25T06:10:53.820Z,2.17
2019-04-25T06:13:51.058Z,2.13
2019-04-25T06:16:39.310Z,2.07
2019-04-25T06:19:26.480Z,1.73
2019-04-25T06:21:56.756Z,2.00
2019-04-25T06:24:32.795Z,1.77
2019-04-25T06:27:25.872Z,1.80
2019-04-25T06:30:17.694Z,1.83
2019-04-25T06:32:47.037Z,2.13
2019-04-25T06:35:16.351Z,2.27
2019-04-25T06:37:45.704Z,1.90
2019-04-25T06:40:15.945Z,1.83
2019-04-25T06:42:46.708Z,2.20
2019-04-25T06:45:44.164Z,2.17
2019-04-25T06:48:36.739Z,1.70
2019-04-25T06:51:06.201Z,1.50
2019-04-25T06:53:35.508Z,2.00
2019-04-25T06:56:06.280Z,1.60
2019-04-25T06:58:35.679Z,2.13
2019-04-25T07:01:05.020Z,1.93
2019-04-25T07:03:35.632Z,2.07
2019-04-25T07:06:05.587Z,2.07
2019-04-25T07:08:35.338Z,2.17
2019-04-25T07:11:04.860Z,2.57
2019-04-25T07:13:38.300Z,3.23
2019-04-25T07:16:05.286Z,2.77
2019-04-25T07:18:37.020Z,2.83
2019-04-25T07:21:05.648Z,4.03
2019-04-25T07:23:35.771Z,4.00
2019-04-25T07:26:13.456Z,3.73
2019-04-25T07:28:57.616Z,3.43
2019-04-25T07:31:58.096Z,3.77
2019-04-25T07:34:27.628Z,4.00
2019-04-25T07:36:56.915Z,4.47
2019-04-25T07:39:26.242Z,3.93
2019-04-25T07:41:55.543Z,3.87
2019-04-25T07:44:39.494Z,5.60
2019-04-25T07:46:55.992Z,6.77
2019-04-25T07:49:26.622Z,7.30
2019-04-25T07:51:56.382Z,8.63
2019-04-25T07:54:27.537Z,9.07
2019-04-25T07:56:57.770Z,9.27
2019-04-25T07:59:27.777Z,9.17
2019-04-25T08:01:57.597Z,9.73
2019-04-25T08:04:27.613Z,9.57
2019-04-25T08:06:57.084Z,9.73
2019-04-25T08:09:27.381Z,9.30
2019-04-25T08:11:57.389Z,10.13
2019-04-25T08:14:34.184Z,9.97
2019-04-25T08:17:05.389Z,10.60
2019-04-25T08:19:35.570Z,10.37
2019-04-25T08:22:05.334Z,9.90
2019-04-25T08:24:37.101Z,10.13
2019-04-25T08:27:06.942Z,9.83
2019-04-25T08:29:38.053Z,9.90
2019-04-25T08:32:07.380Z,10.60
2019-04-25T08:34:37.320Z,10.37
2019-04-25T08:37:17.468Z,10.77
2019-04-25T08:39:38.770Z,10.60
2019-04-25T08:42:08.882Z,10.10
2019-04-25T08:44:39.160Z,9.60
2019-04-25T08:47:08.625Z,9.30
2019-04-25T08:50:03.663Z,9.07
2019-04-25T08:52:35.173Z,9.57
2019-04-25T08:55:14.235Z,9.23
2019-04-25T08:58:03.761Z,9.67
2019-04-25T09:01:04.986Z,9.93
2019-04-25T09:03:42.191Z,9.13
2019-04-25T09:06:13.600Z,9.67
2019-04-25T09:08:45.372Z,8.93
2019-04-25T09:11:14.128Z,8.67
2019-04-25T09:13:44.947Z,9.23
2019-04-25T09:16:15.526Z,9.43
2019-04-25T09:18:45.605Z,8.97
2019-04-25T09:21:15.760Z,9.47
2019-04-25T09:23:45.114Z,9.10
2019-04-25T09:26:14.493Z,10.07
2019-04-25T09:28:45.508Z,10.27
2019-04-25T09:31:14.842Z,9.80
2019-04-25T09:33:45.797Z,10.70
2019-04-25T09:36:15.222Z,12.50
2019-04-25T09:38:47.983Z,12.10
2019-04-25T09:41:15.624Z,11.57
2019-04-25T09:43:46.020Z,12.97
2019-04-25T09:46:21.502Z,11.07
2019-04-25T09:49:04.147Z,10.73
2019-04-25T09:51:55.941Z,11.07
2019-04-25T09:54:45.123Z,12.40
2019-04-25T09:57:43.341Z,12.90
2019-04-25T10:00:30.272Z,13.87
2019-04-25T10:02:59.828Z,15.47
2019-04-25T10:05:29.184Z,15.87
2019-04-25T10:07:58.573Z,16.17
2019-04-25T10:10:28.204Z,16.17
2019-04-25T10:12:57.542Z,15.90
2019-04-25T10:15:54.578Z,15.47
2019-04-25T10:18:24.139Z,18.40
2019-04-25T10:20:54.229Z,18.23
2019-04-25T10:23:24.108Z,16.83
2019-04-25T10:25:53.889Z,16.10
2019-04-25T10:28:23.644Z,15.27
2019-04-25T10:30:53.070Z,15.50
2019-04-25T10:33:26.460Z,17.23
2019-04-25T10:35:59.484Z,16.30
2019-04-25T10:38:28.624Z,16.77
2019-04-25T10:40:58.367Z,14.80
2019-04-25T10:43:27.826Z,15.97
2019-04-25T10:45:57.248Z,16.10
2019-04-25T10:48:26.622Z,14.97
2019-04-25T10:50:56.025Z,15.27
2019-04-25T10:53:25.434Z,15.10
2019-04-25T10:55:54.735Z,17.70
2019-04-25T10:58:24.033Z,15.57
2019-04-25T11:00:54.073Z,15.93
2019-04-25T11:03:48.415Z,14.77
2019-04-25T11:06:23.323Z,15.83
2019-04-25T11:08:55.440Z,15.90
2019-04-25T11:11:24.182Z,15.67
2019-04-25T11:13:57.507Z,14.30
2019-04-25T11:16:26.878Z,15.27
2019-04-25T11:18:56.621Z,15.87
2019-04-25T11:21:26.024Z,16.57
2019-04-25T11:23:55.586Z,15.90
2019-04-25T11:26:25.968Z,15.73
2019-04-25T11:28:55.316Z,17.07
2019-04-25T11:31:29.234Z,15.73
2019-04-25T11:33:58.576Z,16.03
2019-04-25T11:36:28.160Z,17.53
2019-04-25T11:39:34.696Z,17.33
2019-04-25T11:42:09.726Z,17.20
2019-04-25T11:44:39.272Z,17.00
2019-04-25T11:47:08.805Z,16.63
2019-04-25T11:49:38.628Z,16.60
2019-04-25T11:52:08.973Z,16.33
2019-04-25T11:54:38.416Z,15.70
2019-04-25T11:57:07.775Z,15.67
2019-04-25T11:59:38.266Z,15.67
2019-04-25T12:02:10.537Z,17.17
2019-04-25T12:04:39.845Z,17.37
2019-04-25T12:07:09.600Z,18.10
2019-04-25T12:09:39.058Z,17.97
2019-04-25T12:12:08.410Z,18.23
2019-04-25T12:14:37.724Z,17.40
2019-04-25T12:17:07.004Z,18.30
2019-04-25T12:19:37.994Z,18.07
2019-04-25T12:22:07.440Z,16.73
2019-04-25T12:24:36.763Z,16.90
2019-04-25T12:27:06.034Z,18.17
2019-04-25T12:29:35.320Z,18.30
2019-04-25T12:32:05.233Z,17.07
2019-04-25T12:34:34.606Z,16.97
2019-04-25T12:37:04.045Z,15.90
2019-04-25T12:39:34.158Z,16.33
2019-04-25T12:42:04.423Z,15.30
2019-04-25T12:44:54.644Z,15.87
2019-04-25T12:47:25.736Z,15.47
2019-04-25T12:49:56.049Z,15.83
2019-04-25T12:52:25.699Z,14.73
2019-04-25T12:54:57.083Z,16.27
2019-04-25T12:57:26.601Z,16.30
2019-04-25T12:59:55.908Z,15.53
2019-04-25T13:02:25.325Z,15.00
2019-04-25T13:04:55.521Z,15.83
2019-04-25T13:07:25.135Z,15.13
2019-04-25T13:09:55.345Z,14.43
2019-04-25T13:12:25.044Z,14.50
2019-04-25T13:14:54.369Z,13.50
2019-04-25T13:17:24.177Z,13.00
2019-04-25T13:19:54.401Z,13.47
2019-04-25T13:22:24.100Z,14.00
2019-04-25T13:24:53.525Z,13.83
2019-04-25T13:27:44.628Z,14.03
2019-04-25T13:30:24.160Z,14.87
2019-04-25T13:33:08.570Z,15.13
2019-04-25T13:35:44.765Z,15.70
2019-04-25T13:38:14.972Z,16.70
2019-04-25T13:40:44.528Z,16.67
2019-04-25T13:43:13.848Z,16.37
2019-04-25T13:45:43.133Z,13.57
2019-04-25T13:48:13.222Z,15.10
2019-04-25T13:50:44.345Z,15.10
2019-04-25T13:53:13.747Z,15.10
2019-04-25T13:55:43.184Z,14.77
2019-04-25T13:58:14.344Z,15.47
2019-04-25T14:00:44.463Z,16.47
2019-04-25T14:03:13.794Z,15.80
2019-04-25T14:05:43.908Z,15.33
2019-04-25T14:08:14.893Z,15.27
2019-04-25T14:10:44.423Z,14.20
2019-04-25T14:13:13.953Z,12.63
2019-04-25T14:15:48.705Z,14.37
2019-04-25T14:18:35.606Z,14.30
2019-04-25T14:21:24.901Z,13.83
2019-04-25T14:23:54.920Z,12.97
2019-04-25T14:26:25.046Z,12.40
2019-04-25T14:28:54.508Z,12.57
2019-04-25T14:31:39.336Z,12.27
2019-04-25T14:33:56.244Z,12.80
2019-04-25T14:36:26.451Z,13.17
2019-04-25T14:38:56.562Z,11.53
2019-04-25T14:41:26.097Z,11.80
2019-04-25T14:43:55.585Z,13.67
2019-04-25T14:46:26.367Z,11.97
2019-04-25T14:48:56.086Z,12.40
2019-04-25T14:51:26.137Z,13.20
2019-04-25T14:53:56.622Z,12.63
2019-04-25T14:56:34.521Z,12.53
2019-04-25T14:59:04.415Z,13.23
2019-04-25T15:01:44.065Z,13.10
2019-04-25T15:04:04.849Z,14.07
2019-04-25T15:06:34.248Z,13.63
2019-04-25T15:09:03.658Z,13.30
2019-04-25T15:11:33.576Z,14.80
2019-04-25T15:14:03.140Z,13.47
2019-04-25T15:16:33.380Z,13.17
2019-04-25T15:19:03.069Z,12.47
2019-04-25T15:21:32.353Z,12.97
2019-04-25T15:24:01.705Z,13.30
2019-04-25T15:26:31.189Z,13.60
2019-04-25T15:29:00.545Z,12.93
2019-04-25T15:31:30.297Z,12.83
2019-04-25T15:34:02.265Z,11.93
2019-04-25T15:36:46.144Z,11.60
2019-04-25T15:39:43.402Z,10.40
2019-04-25T15:42:34.712Z,11.60
2019-04-25T15:45:23.292Z,10.53
2019-04-25T15:47:53.240Z,10.97
2019-04-25T15:50:22.562Z,11.30
2019-04-25T15:52:52.464Z,10.70
2019-04-25T15:55:21.797Z,10.03
2019-04-25T15:57:51.133Z,10.03
2019-04-25T16:00:26.990Z,9.27
2019-04-25T16:02:56.410Z,8.53
2019-04-25T16:05:26.618Z,10.00
2019-04-25T16:07:56.161Z,10.00
2019-04-25T16:10:25.620Z,9.87
2019-04-25T16:12:54.923Z,10.03
2019-04-25T16:15:24.200Z,9.93
2019-04-25T16:17:53.523Z,9.33
2019-04-25T16:20:22.846Z,8.23
2019-04-25T16:22:52.226Z,8.50
2019-04-25T16:25:21.597Z,8.10
2019-04-25T16:27:50.903Z,8.03
2019-04-25T16:30:22.508Z,10.10
2019-04-25T16:32:51.853Z,11.27
2019-04-25T16:35:21.216Z,12.87
2019-04-25T16:37:50.524Z,12.37
2019-04-25T16:40:19.863Z,13.43
2019-04-25T16:42:49.395Z,13.00
2019-04-25T16:45:18.710Z,13.53
2019-04-25T16:47:48.011Z,13.93
2019-04-25T16:50:19.000Z,15.23
2019-04-25T16:52:48.334Z,14.10
2019-04-25T16:55:18.227Z,14.80
2019-04-25T16:57:47.588Z,14.00
2019-04-25T17:00:55.000Z,14.10
2019-04-25T17:03:27.065Z,14.77
2019-04-25T17:05:56.521Z,15.57
2019-04-25T17:08:25.969Z,15.50
2019-04-25T17:10:55.287Z,15.37
2019-04-25T17:13:26.305Z,16.27
2019-04-25T17:16:07.295Z,15.80
2019-04-25T17:18:58.405Z,15.50
2019-04-25T17:21:28.368Z,15.60
2019-04-25T17:23:57.783Z,14.47
2019-04-25T17:26:27.109Z,16.83
2019-04-25T17:28:58.767Z,15.67
2019-04-25T17:31:38.924Z,16.30
2019-04-25T17:34:16.619Z,16.63
2019-04-25T17:36:55.498Z,15.77
2019-04-25T17:39:43.752Z,15.77
2019-04-25T17:42:13.071Z,15.77
2019-04-25T17:44:42.594Z,16.73
2019-04-25T17:47:12.176Z,15.60
2019-04-25T17:49:42.324Z,16.67
2019-04-25T17:52:12.077Z,16.03
2019-04-25T17:54:41.403Z,17.13
2019-04-25T17:57:10.702Z,16.47
2019-04-25T17:59:40.040Z,16.23
2019-04-25T18:02:09.427Z,16.93
2019-04-25T18:04:38.787Z,15.57
2019-04-25T18:07:08.547Z,17.27
2019-04-25T18:09:38.679Z,16.90
2019-04-25T18:12:08.202Z,16.53
2019-04-25T18:14:38.456Z,17.13
2019-04-25T18:17:27.169Z,18.57
2019-04-25T18:20:01.689Z,16.90
2019-04-25T18:22:58.926Z,18.57
2019-04-25T18:25:59.430Z,19.80
2019-04-25T18:28:39.473Z,19.13
2019-04-25T18:31:09.564Z,18.90
2019-04-25T18:33:39.331Z,18.53
2019-04-25T18:36:24.490Z,18.90
2019-04-25T18:39:12.754Z,19.17
2019-04-25T18:41:46.999Z,19.47
2019-04-25T18:44:16.343Z,18.20
2019-04-25T18:46:47.239Z,20.10
2019-04-25T18:49:16.786Z,18.60
2019-04-25T18:51:56.445Z,17.83
2019-04-25T18:54:41.997Z,18.27
2019-04-25T18:57:21.973Z,18.13
2019-04-25T19:00:00.132Z,17.33
2019-04-25T19:02:59.674Z,18.17
2019-04-25T19:05:56.928Z,16.60
2019-04-25T19:08:26.312Z,14.70
2019-04-25T19:10:55.697Z,14.77
2019-04-25T19:13:25.088Z,14.23
2019-04-25T19:15:54.421Z,14.13
2019-04-25T19:18:23.755Z,13.80
2019-04-25T19:20:53.208Z,15.07
2019-04-25T19:23:22.507Z,12.47
2019-04-25T19:25:52.155Z,10.73
2019-04-25T19:28:21.913Z,10.63
2019-04-25T19:30:51.429Z,9.43
2019-04-25T19:33:34.762Z,10.03
2019-04-25T19:35:53.700Z,9.60
2019-04-25T19:38:23.226Z,10.97
2019-04-25T19:41:08.152Z,12.87
2019-04-25T19:43:53.780Z,8.87
2019-04-25T19:46:37.409Z,8.80
2019-04-25T19:49:07.206Z,7.90
2019-04-25T19:51:36.543Z,7.00
2019-04-25T19:54:06.986Z,7.93
2019-04-25T19:56:36.398Z,7.03
2019-04-25T19:59:06.143Z,6.73
2019-04-25T20:01:35.497Z,6.17
2019-04-25T20:04:29.771Z,5.87
2019-04-25T20:07:37.255Z,6.67
2019-04-25T20:10:24.763Z,5.27
2019-04-25T20:12:55.019Z,5.53
2019-04-25T20:15:24.408Z,5.70
2019-04-25T20:17:54.225Z,6.83
2019-04-25T20:20:23.981Z,6.57
2019-04-25T20:22:54.376Z,5.80
2019-04-25T20:25:24.097Z,6.43
2019-04-25T20:27:53.381Z,6.33
2019-04-25T20:30:23.660Z,5.87
2019-04-25T20:32:53.628Z,6.47
2019-04-25T20:35:23.172Z,6.57
2019-04-25T20:37:53.392Z,7.63
2019-04-25T20:40:22.932Z,6.50
2019-04-25T20:42:52.262Z,6.90
2019-04-25T20:45:21.920Z,6.73
2019-04-25T20:47:52.071Z,6.87
2019-04-25T20:50:21.761Z,6.30
2019-04-25T20:52:51.178Z,6.30
2019-04-25T20:55:20.568Z,5.53
2019-04-25T20:57:49.861Z,6.13
2019-04-25T21:00:40.173Z,6.20
2019-04-25T21:03:10.060Z,6.57
2019-04-25T21:05:39.439Z,6.97
2019-04-25T21:08:08.784Z,6.33
2019-04-25T21:10:38.151Z,7.17
2019-04-25T21:13:10.614Z,6.33
2019-04-25T21:16:02.628Z,5.90
2019-04-25T21:18:47.697Z,5.43
2019-04-25T21:21:17.088Z,6.27
2019-04-25T21:23:46.468Z,6.17
2019-04-25T21:26:15.814Z,5.70
2019-04-25T21:28:45.282Z,5.90
2019-04-25T21:31:14.650Z,6.13
2019-04-25T21:33:44.043Z,6.77
2019-04-25T21:36:13.626Z,6.10
2019-04-25T21:38:43.241Z,6.90
2019-04-25T21:41:34.995Z,5.97
2019-04-25T21:44:05.940Z,6.03
2019-04-25T21:46:35.691Z,6.23
2019-04-25T21:49:05.586Z,5.93
2019-04-25T21:51:34.919Z,6.07
2019-04-25T21:54:04.592Z,7.37
2019-04-25T21:56:34.490Z,7.00
2019-04-25T21:59:04.141Z,6.13
2019-04-25T22:01:37.177Z,7.37
2019-04-25T22:04:06.632Z,7.30
2019-04-25T22:06:36.522Z,7.67
2019-04-25T22:09:10.364Z,7.03
2019-04-25T22:11:39.742Z,7.07
2019-04-25T22:14:10.013Z,8.03
2019-04-25T22:16:39.916Z,7.70
2019-04-25T22:19:11.100Z,7.20
2019-04-25T22:21:40.618Z,7.67
2019-04-25T22:24:14.241Z,8.00
2019-04-25T22:26:41.948Z,8.43
2019-04-25T22:29:11.695Z,7.17
2019-04-25T22:31:49.022Z,6.27
2019-04-25T22:34:30.210Z,6.37
2019-04-25T22:36:59.897Z,7.20
2019-04-25T22:39:29.461Z,7.07
2019-04-25T22:41:59.542Z,6.23
2019-04-25T22:44:30.098Z,7.13
2019-04-25T22:47:00.825Z,7.23
2019-04-25T22:49:30.224Z,7.03
2019-04-25T22:52:00.575Z,7.57
2019-04-25T22:54:31.047Z,6.87
2019-04-25T22:57:01.781Z,7.00
2019-04-25T22:59:31.439Z,6.47
2019-04-25T23:02:18.558Z,6.73
2019-04-25T23:05:12.923Z,6.70
2019-04-25T23:07:39.409Z,6.47
2019-04-25T23:10:10.321Z,7.27
2019-04-25T23:12:40.092Z,6.77
2019-04-25T23:15:09.496Z,6.27
2019-04-25T23:17:38.892Z,6.80
2019-04-25T23:20:09.586Z,6.27
2019-04-25T23:22:39.173Z,6.40
2019-04-25T23:25:11.916Z,6.90
2019-04-25T23:28:03.620Z,7.07
2019-04-25T23:30:38.756Z,8.03
2019-04-25T23:33:08.507Z,7.10
2019-04-25T23:35:38.944Z,7.20
2019-04-25T23:38:10.808Z,7.33
2019-04-25T23:40:39.745Z,7.10
2019-04-25T23:43:09.590Z,8.73
2019-04-25T23:45:38.996Z,9.67
2019-04-25T23:48:08.706Z,9.33
2019-04-25T23:50:38.021Z,9.97
2019-04-25T23:53:08.075Z,9.87
2019-04-25T23:55:38.339Z,10.07
2019-04-25T23:58:08.690Z,9.90
